sensor_id;sensor_type;location;lat;lon;timestamp;temperature;humidity
60234;DHT22;49514;43.538;-5.708;2022-10-31T00:00:58;14.80;99.90
60234;DHT22;49514;43.538;-5.708;2022-10-31T00:03:25;14.80;99.90
60234;DHT22;49514;43.538;-5.708;2022-10-31T00:05:53;14.80;99.90
60234;DHT22;49514;43.538;-5.708;2022-10-31T00:08:19;14.80;99.90
60234;DHT22;49514;43.538;-5.708;2022-10-31T00:10:46;14.70;99.90
60234;DHT22;49514;43.538;-5.708;2022-10-31T00:13:14;14.80;99.90
60234;DHT22;49514;43.538;-5.708;2022-10-31T00:15:41;14.80;99.90
60234;DHT22;49514;43.538;-5.708;2022-10-31T00:18:10;14.70;99.90
60234;DHT22;49514;43.538;-5.708;2022-10-31T00:20:37;14.70;99.90
60234;DHT22;49514;43.538;-5.708;2022-10-31T00:23:04;14.70;99.90
60234;DHT22;49514;43.538;-5.708;2022-10-31T00:25:36;14.70;99.90
60234;DHT22;49514;43.538;-5.708;2022-10-31T00:28:05;14.60;99.90
60234;DHT22;49514;43.538;-5.708;2022-10-31T00:32:59;14.60;99.90
60234;DHT22;49514;43.538;-5.708;2022-10-31T00:35:27;14.50;99.90
60234;DHT22;49514;43.538;-5.708;2022-10-31T00:37:53;14.60;99.90
60234;DHT22;49514;43.538;-5.708;2022-10-31T00:40:20;14.60;99.90
60234;DHT22;49514;43.538;-5.708;2022-10-31T00:42:48;14.50;99.90
60234;DHT22;49514;43.538;-5.708;2022-10-31T00:45:15;14.50;99.90
60234;DHT22;49514;43.538;-5.708;2022-10-31T00:47:41;14.50;99.90
60234;DHT22;49514;43.538;-5.708;2022-10-31T00:50:08;14.50;99.90
60234;DHT22;49514;43.538;-5.708;2022-10-31T00:52:35;14.40;99.90
60234;DHT22;49514;43.538;-5.708;2022-10-31T00:55:02;14.40;99.90
60234;DHT22;49514;43.538;-5.708;2022-10-31T00:57:29;14.40;99.90
60234;DHT22;49514;43.538;-5.708;2022-10-31T00:59:56;14.40;99.90
60234;DHT22;49514;43.538;-5.708;2022-10-31T01:02:23;14.40;99.90
60234;DHT22;49514;43.538;-5.708;2022-10-31T01:04:49;14.40;99.90
60234;DHT22;49514;43.538;-5.708;2022-10-31T01:07:16;14.40;99.90
60234;DHT22;49514;43.538;-5.708;2022-10-31T01:09:44;14.40;99.90
60234;DHT22;49514;43.538;-5.708;2022-10-31T01:12:11;14.40;99.90
60234;DHT22;49514;43.538;-5.708;2022-10-31T01:14:43;14.40;99.90
60234;DHT22;49514;43.538;-5.708;2022-10-31T01:17:13;14.40;99.90
60234;DHT22;49514;43.538;-5.708;2022-10-31T01:19:40;14.40;99.90
60234;DHT22;49514;43.538;-5.708;2022-10-31T01:22:06;14.40;99.90
60234;DHT22;49514;43.538;-5.708;2022-10-31T01:24:33;14.40;99.90
60234;DHT22;49514;43.538;-5.708;2022-10-31T01:27:02;14.40;99.90
60234;DHT22;49514;43.538;-5.708;2022-10-31T01:29:32;14.40;99.90
60234;DHT22;49514;43.538;-5.708;2022-10-31T01:31:58;14.30;99.90
60234;DHT22;49514;43.538;-5.708;2022-10-31T01:34:25;14.30;99.90
60234;DHT22;49514;43.538;-5.708;2022-10-31T01:36:52;14.30;99.90
60234;DHT22;49514;43.538;-5.708;2022-10-31T01:39:19;14.30;99.90
60234;DHT22;49514;43.538;-5.708;2022-10-31T01:41:51;14.30;99.90
60234;DHT22;49514;43.538;-5.708;2022-10-31T01:49:18;14.30;99.90
60234;DHT22;49514;43.538;-5.708;2022-10-31T01:51:52;14.30;99.90
60234;DHT22;49514;43.538;-5.708;2022-10-31T01:54:23;14.30;99.90
60234;DHT22;49514;43.538;-5.708;2022-10-31T01:56:52;14.20;99.90
60234;DHT22;49514;43.538;-5.708;2022-10-31T01:59:22;14.20;99.90
60234;DHT22;49514;43.538;-5.708;2022-10-31T02:01:50;14.20;99.90
60234;DHT22;49514;43.538;-5.708;2022-10-31T02:04:19;14.20;99.90
60234;DHT22;49514;43.538;-5.708;2022-10-31T02:07:09;14.20;99.90
60234;DHT22;49514;43.538;-5.708;2022-10-31T02:09:37;14.20;99.90
60234;DHT22;49514;43.538;-5.708;2022-10-31T02:12:04;14.20;99.90
60234;DHT22;49514;43.538;-5.708;2022-10-31T02:14:33;14.20;99.90
60234;DHT22;49514;43.538;-5.708;2022-10-31T02:17:00;14.20;99.90
60234;DHT22;49514;43.538;-5.708;2022-10-31T02:19:49;14.10;99.90
60234;DHT22;49514;43.538;-5.708;2022-10-31T02:22:26;14.20;99.90
60234;DHT22;49514;43.538;-5.708;2022-10-31T02:33:50;14.20;99.90
60234;DHT22;49514;43.538;-5.708;2022-10-31T02:36:26;14.20;99.90
60234;DHT22;49514;43.538;-5.708;2022-10-31T02:42:06;14.10;99.90
60234;DHT22;49514;43.538;-5.708;2022-10-31T02:44:56;14.00;99.90
60234;DHT22;49514;43.538;-5.708;2022-10-31T02:47:29;14.00;99.90
60234;DHT22;49514;43.538;-5.708;2022-10-31T02:52:31;13.90;99.90
60234;DHT22;49514;43.538;-5.708;2022-10-31T02:58:09;13.90;99.90
60234;DHT22;49514;43.538;-5.708;2022-10-31T03:06:17;13.90;99.90
60234;DHT22;49514;43.538;-5.708;2022-10-31T03:12:12;13.90;99.90
60234;DHT22;49514;43.538;-5.708;2022-10-31T03:17:32;13.90;99.90
60234;DHT22;49514;43.538;-5.708;2022-10-31T03:20:00;14.00;99.90
60234;DHT22;49514;43.538;-5.708;2022-10-31T03:22:31;13.90;99.90
60234;DHT22;49514;43.538;-5.708;2022-10-31T03:25:02;14.00;99.90
60234;DHT22;49514;43.538;-5.708;2022-10-31T03:27:34;14.00;99.90
60234;DHT22;49514;43.538;-5.708;2022-10-31T03:30:05;14.00;99.90
60234;DHT22;49514;43.538;-5.708;2022-10-31T03:47:41;14.40;99.90
60234;DHT22;49514;43.538;-5.708;2022-10-31T03:50:12;14.20;99.90
60234;DHT22;49514;43.538;-5.708;2022-10-31T03:58:21;14.40;99.90
60234;DHT22;49514;43.538;-5.708;2022-10-31T04:00:51;14.40;99.90
60234;DHT22;49514;43.538;-5.708;2022-10-31T04:03:25;14.40;99.90
60234;DHT22;49514;43.538;-5.708;2022-10-31T04:05:58;14.40;99.90
60234;DHT22;49514;43.538;-5.708;2022-10-31T04:08:28;14.40;99.90
60234;DHT22;49514;43.538;-5.708;2022-10-31T04:10:57;14.40;99.90
60234;DHT22;49514;43.538;-5.708;2022-10-31T04:13:29;14.40;99.90
60234;DHT22;49514;43.538;-5.708;2022-10-31T04:16:08;14.40;99.90
60234;DHT22;49514;43.538;-5.708;2022-10-31T04:18:36;14.50;99.90
60234;DHT22;49514;43.538;-5.708;2022-10-31T04:21:07;14.50;99.90
60234;DHT22;49514;43.538;-5.708;2022-10-31T04:23:35;14.60;99.90
60234;DHT22;49514;43.538;-5.708;2022-10-31T04:26:13;14.50;99.90
60234;DHT22;49514;43.538;-5.708;2022-10-31T04:28:43;14.50;99.90
60234;DHT22;49514;43.538;-5.708;2022-10-31T04:31:11;14.50;99.90
60234;DHT22;49514;43.538;-5.708;2022-10-31T04:33:39;14.50;99.90
60234;DHT22;49514;43.538;-5.708;2022-10-31T04:36:06;14.60;99.90
60234;DHT22;49514;43.538;-5.708;2022-10-31T04:38:33;14.60;99.90
60234;DHT22;49514;43.538;-5.708;2022-10-31T04:41:00;14.50;99.90
60234;DHT22;49514;43.538;-5.708;2022-10-31T04:43:55;14.60;99.90
60234;DHT22;49514;43.538;-5.708;2022-10-31T04:46:23;14.60;99.90
60234;DHT22;49514;43.538;-5.708;2022-10-31T04:48:49;14.60;99.90
60234;DHT22;49514;43.538;-5.708;2022-10-31T04:51:17;14.70;99.90
60234;DHT22;49514;43.538;-5.708;2022-10-31T04:53:43;14.60;99.90
60234;DHT22;49514;43.538;-5.708;2022-10-31T04:56:42;14.60;99.90
60234;DHT22;49514;43.538;-5.708;2022-10-31T04:59:14;14.70;99.90
60234;DHT22;49514;43.538;-5.708;2022-10-31T05:01:48;14.70;99.90
60234;DHT22;49514;43.538;-5.708;2022-10-31T05:04:18;14.70;99.90
60234;DHT22;49514;43.538;-5.708;2022-10-31T05:06:45;14.70;99.90
60234;DHT22;49514;43.538;-5.708;2022-10-31T05:09:11;14.80;99.90
60234;DHT22;49514;43.538;-5.708;2022-10-31T05:11:38;14.80;99.90
60234;DHT22;49514;43.538;-5.708;2022-10-31T05:14:26;14.70;99.90
60234;DHT22;49514;43.538;-5.708;2022-10-31T05:17:15;14.80;99.90
60234;DHT22;49514;43.538;-5.708;2022-10-31T05:20:05;14.80;99.90
60234;DHT22;49514;43.538;-5.708;2022-10-31T05:22:54;14.70;99.90
60234;DHT22;49514;43.538;-5.708;2022-10-31T05:25:22;14.80;99.90
60234;DHT22;49514;43.538;-5.708;2022-10-31T05:27:51;14.80;99.90
60234;DHT22;49514;43.538;-5.708;2022-10-31T05:30:29;14.80;99.90
60234;DHT22;49514;43.538;-5.708;2022-10-31T05:32:58;14.80;99.90
60234;DHT22;49514;43.538;-5.708;2022-10-31T05:35:45;14.80;99.90
60234;DHT22;49514;43.538;-5.708;2022-10-31T05:38:23;14.70;99.90
60234;DHT22;49514;43.538;-5.708;2022-10-31T05:40:50;14.80;99.90
60234;DHT22;49514;43.538;-5.708;2022-10-31T05:43:16;14.80;99.90
60234;DHT22;49514;43.538;-5.708;2022-10-31T05:45:43;14.80;99.90
60234;DHT22;49514;43.538;-5.708;2022-10-31T05:48:24;14.80;99.90
60234;DHT22;49514;43.538;-5.708;2022-10-31T05:51:13;14.70;99.90
60234;DHT22;49514;43.538;-5.708;2022-10-31T05:53:40;14.80;99.90
60234;DHT22;49514;43.538;-5.708;2022-10-31T05:56:07;14.80;99.90
60234;DHT22;49514;43.538;-5.708;2022-10-31T05:58:33;14.70;99.90
60234;DHT22;49514;43.538;-5.708;2022-10-31T06:01:04;14.70;99.90
60234;DHT22;49514;43.538;-5.708;2022-10-31T06:03:32;14.80;99.90
60234;DHT22;49514;43.538;-5.708;2022-10-31T06:06:02;14.80;99.90
60234;DHT22;49514;43.538;-5.708;2022-10-31T06:08:36;14.70;99.90
60234;DHT22;49514;43.538;-5.708;2022-10-31T06:11:07;14.70;99.90
60234;DHT22;49514;43.538;-5.708;2022-10-31T06:13:52;14.70;99.90
60234;DHT22;49514;43.538;-5.708;2022-10-31T06:16:24;14.70;99.90
60234;DHT22;49514;43.538;-5.708;2022-10-31T06:18:51;14.70;99.90
60234;DHT22;49514;43.538;-5.708;2022-10-31T06:21:19;14.70;99.90
60234;DHT22;49514;43.538;-5.708;2022-10-31T06:23:48;14.70;99.90
60234;DHT22;49514;43.538;-5.708;2022-10-31T06:26:43;14.70;99.90
60234;DHT22;49514;43.538;-5.708;2022-10-31T06:29:10;14.70;99.90
60234;DHT22;49514;43.538;-5.708;2022-10-31T06:31:54;14.60;99.90
60234;DHT22;49514;43.538;-5.708;2022-10-31T06:34:21;14.60;99.90
60234;DHT22;49514;43.538;-5.708;2022-10-31T06:36:48;14.60;99.90
60234;DHT22;49514;43.538;-5.708;2022-10-31T06:39:15;14.60;99.90
60234;DHT22;49514;43.538;-5.708;2022-10-31T06:41:41;14.60;99.90
60234;DHT22;49514;43.538;-5.708;2022-10-31T06:44:10;14.60;99.90
60234;DHT22;49514;43.538;-5.708;2022-10-31T06:49:38;14.60;99.90
60234;DHT22;49514;43.538;-5.708;2022-10-31T06:52:11;14.60;99.90
60234;DHT22;49514;43.538;-5.708;2022-10-31T06:54:38;14.60;99.90
60234;DHT22;49514;43.538;-5.708;2022-10-31T06:57:04;14.60;99.90
60234;DHT22;49514;43.538;-5.708;2022-10-31T06:59:31;14.60;99.90
60234;DHT22;49514;43.538;-5.708;2022-10-31T07:02:04;14.60;99.90
60234;DHT22;49514;43.538;-5.708;2022-10-31T07:04:33;14.60;99.90
60234;DHT22;49514;43.538;-5.708;2022-10-31T07:06:59;14.60;99.90
60234;DHT22;49514;43.538;-5.708;2022-10-31T07:09:26;14.70;99.90
60234;DHT22;49514;43.538;-5.708;2022-10-31T07:11:54;14.70;99.90
60234;DHT22;49514;43.538;-5.708;2022-10-31T07:14:21;14.70;99.90
60234;DHT22;49514;43.538;-5.708;2022-10-31T07:16:49;14.70;99.90
60234;DHT22;49514;43.538;-5.708;2022-10-31T07:19:18;14.70;99.90
60234;DHT22;49514;43.538;-5.708;2022-10-31T07:21:45;14.70;99.90
60234;DHT22;49514;43.538;-5.708;2022-10-31T07:24:14;14.80;99.90
60234;DHT22;49514;43.538;-5.708;2022-10-31T07:26:41;14.70;99.90
60234;DHT22;49514;43.538;-5.708;2022-10-31T07:29:09;14.70;99.90
60234;DHT22;49514;43.538;-5.708;2022-10-31T07:34:10;14.80;99.90
60234;DHT22;49514;43.538;-5.708;2022-10-31T07:37:00;14.90;99.90
60234;DHT22;49514;43.538;-5.708;2022-10-31T07:39:27;14.70;99.90
60234;DHT22;49514;43.538;-5.708;2022-10-31T07:41:54;14.80;99.90
60234;DHT22;49514;43.538;-5.708;2022-10-31T07:44:20;14.80;99.90
60234;DHT22;49514;43.538;-5.708;2022-10-31T07:46:53;14.80;99.90
60234;DHT22;49514;43.538;-5.708;2022-10-31T07:49:22;14.90;99.90
60234;DHT22;49514;43.538;-5.708;2022-10-31T07:52:10;15.00;99.90
60234;DHT22;49514;43.538;-5.708;2022-10-31T08:02:08;15.00;99.90
60234;DHT22;49514;43.538;-5.708;2022-10-31T08:04:47;15.10;99.90
60234;DHT22;49514;43.538;-5.708;2022-10-31T08:07:29;15.10;99.90
60234;DHT22;49514;43.538;-5.708;2022-10-31T08:10:05;15.20;99.90
60234;DHT22;49514;43.538;-5.708;2022-10-31T08:12:34;15.30;99.90
60234;DHT22;49514;43.538;-5.708;2022-10-31T08:15:00;15.40;99.90
60234;DHT22;49514;43.538;-5.708;2022-10-31T08:17:28;15.50;99.90
60234;DHT22;49514;43.538;-5.708;2022-10-31T08:19:58;15.50;99.90
60234;DHT22;49514;43.538;-5.708;2022-10-31T08:22:29;15.50;99.90
60234;DHT22;49514;43.538;-5.708;2022-10-31T08:24:55;15.50;99.90
60234;DHT22;49514;43.538;-5.708;2022-10-31T08:27:22;15.60;99.90
60234;DHT22;49514;43.538;-5.708;2022-10-31T08:29:49;15.50;99.90
60234;DHT22;49514;43.538;-5.708;2022-10-31T08:32:16;15.60;99.90
60234;DHT22;49514;43.538;-5.708;2022-10-31T08:34:58;15.60;99.90
60234;DHT22;49514;43.538;-5.708;2022-10-31T08:37:43;15.60;99.90
60234;DHT22;49514;43.538;-5.708;2022-10-31T08:40:10;15.60;99.90
60234;DHT22;49514;43.538;-5.708;2022-10-31T08:42:40;15.60;99.90
60234;DHT22;49514;43.538;-5.708;2022-10-31T08:45:07;15.50;99.90
60234;DHT22;49514;43.538;-5.708;2022-10-31T08:47:34;15.60;99.90
60234;DHT22;49514;43.538;-5.708;2022-10-31T08:50:01;15.60;99.90
60234;DHT22;49514;43.538;-5.708;2022-10-31T08:52:28;15.60;99.90
60234;DHT22;49514;43.538;-5.708;2022-10-31T08:55:01;15.60;99.90
60234;DHT22;49514;43.538;-5.708;2022-10-31T08:57:46;15.60;99.90
60234;DHT22;49514;43.538;-5.708;2022-10-31T09:00:13;15.70;99.90
60234;DHT22;49514;43.538;-5.708;2022-10-31T09:03:10;15.70;99.90
60234;DHT22;49514;43.538;-5.708;2022-10-31T09:05:37;15.80;99.90
60234;DHT22;49514;43.538;-5.708;2022-10-31T09:08:05;15.80;99.90
60234;DHT22;49514;43.538;-5.708;2022-10-31T09:10:34;15.90;99.90
60234;DHT22;49514;43.538;-5.708;2022-10-31T09:13:08;16.00;99.90
60234;DHT22;49514;43.538;-5.708;2022-10-31T09:18:26;16.30;99.90
60234;DHT22;49514;43.538;-5.708;2022-10-31T09:21:00;16.40;99.90
60234;DHT22;49514;43.538;-5.708;2022-10-31T09:23:30;16.50;99.90
60234;DHT22;49514;43.538;-5.708;2022-10-31T09:28:38;16.90;99.90
60234;DHT22;49514;43.538;-5.708;2022-10-31T09:31:24;16.90;99.90
60234;DHT22;49514;43.538;-5.708;2022-10-31T09:34:06;17.00;99.90
60234;DHT22;49514;43.538;-5.708;2022-10-31T09:36:33;17.20;99.90
60234;DHT22;49514;43.538;-5.708;2022-10-31T09:38:59;17.30;99.90
60234;DHT22;49514;43.538;-5.708;2022-10-31T09:44:08;17.40;99.90
60234;DHT22;49514;43.538;-5.708;2022-10-31T09:57:12;17.50;99.90
60234;DHT22;49514;43.538;-5.708;2022-10-31T09:59:41;17.40;99.90
60234;DHT22;49514;43.538;-5.708;2022-10-31T10:02:16;17.30;99.90
60234;DHT22;49514;43.538;-5.708;2022-10-31T10:04:47;17.30;99.90
60234;DHT22;49514;43.538;-5.708;2022-10-31T10:24:11;16.80;99.90
60234;DHT22;49514;43.538;-5.708;2022-10-31T10:26:46;16.80;99.90
60234;DHT22;49514;43.538;-5.708;2022-10-31T10:29:49;16.90;99.90
60234;DHT22;49514;43.538;-5.708;2022-10-31T10:32:23;16.90;99.90
60234;DHT22;49514;43.538;-5.708;2022-10-31T10:37:42;17.10;99.90
60234;DHT22;49514;43.538;-5.708;2022-10-31T10:40:30;17.50;99.90
60234;DHT22;49514;43.538;-5.708;2022-10-31T10:54:44;18.20;99.90
60234;DHT22;49514;43.538;-5.708;2022-10-31T10:57:17;18.30;99.90
60234;DHT22;49514;43.538;-5.708;2022-10-31T10:59:46;18.50;99.90
60234;DHT22;49514;43.538;-5.708;2022-10-31T11:02:23;18.80;99.90
60234;DHT22;49514;43.538;-5.708;2022-10-31T11:04:51;18.90;99.90
60234;DHT22;49514;43.538;-5.708;2022-10-31T11:07:18;19.10;99.90
60234;DHT22;49514;43.538;-5.708;2022-10-31T11:09:45;19.50;99.90
60234;DHT22;49514;43.538;-5.708;2022-10-31T11:12:28;19.90;99.90
60234;DHT22;49514;43.538;-5.708;2022-10-31T11:14:58;20.30;99.90
60234;DHT22;49514;43.538;-5.708;2022-10-31T11:17:39;20.70;99.90
60234;DHT22;49514;43.538;-5.708;2022-10-31T11:22:40;21.40;99.90
60234;DHT22;49514;43.538;-5.708;2022-10-31T11:25:20;21.50;99.90
60234;DHT22;49514;43.538;-5.708;2022-10-31T11:27:58;21.70;99.90
60234;DHT22;49514;43.538;-5.708;2022-10-31T11:30:24;21.90;99.90
60234;DHT22;49514;43.538;-5.708;2022-10-31T11:32:50;22.10;99.90
60234;DHT22;49514;43.538;-5.708;2022-10-31T11:35:19;22.10;99.90
60234;DHT22;49514;43.538;-5.708;2022-10-31T11:37:48;22.20;99.90
60234;DHT22;49514;43.538;-5.708;2022-10-31T11:40:19;22.30;99.90
60234;DHT22;49514;43.538;-5.708;2022-10-31T11:42:46;22.30;99.90
60234;DHT22;49514;43.538;-5.708;2022-10-31T11:45:14;22.40;99.90
60234;DHT22;49514;43.538;-5.708;2022-10-31T11:47:42;22.70;99.90
60234;DHT22;49514;43.538;-5.708;2022-10-31T11:50:09;22.80;99.90
60234;DHT22;49514;43.538;-5.708;2022-10-31T11:52:37;23.10;99.90
60234;DHT22;49514;43.538;-5.708;2022-10-31T11:57:46;23.20;99.90
60234;DHT22;49514;43.538;-5.708;2022-10-31T12:02:46;23.20;99.90
60234;DHT22;49514;43.538;-5.708;2022-10-31T12:05:46;23.00;99.90
60234;DHT22;49514;43.538;-5.708;2022-10-31T12:08:07;22.80;99.90
60234;DHT22;49514;43.538;-5.708;2022-10-31T12:13:37;22.30;99.90
60234;DHT22;49514;43.538;-5.708;2022-10-31T12:21:15;22.50;99.90
60234;DHT22;49514;43.538;-5.708;2022-10-31T12:24:18;22.30;99.90
60234;DHT22;49514;43.538;-5.708;2022-10-31T12:27:03;22.00;99.90
60234;DHT22;49514;43.538;-5.708;2022-10-31T12:32:12;21.80;99.90
60234;DHT22;49514;43.538;-5.708;2022-10-31T12:34:51;21.70;99.90
60234;DHT22;49514;43.538;-5.708;2022-10-31T12:40:40;22.90;99.90
60234;DHT22;49514;43.538;-5.708;2022-10-31T12:43:16;24.00;99.90
60234;DHT22;49514;43.538;-5.708;2022-10-31T12:45:55;24.00;99.90
60234;DHT22;49514;43.538;-5.708;2022-10-31T12:51:01;23.20;99.90
60234;DHT22;49514;43.538;-5.708;2022-10-31T12:58:33;21.90;99.90
60234;DHT22;49514;43.538;-5.708;2022-10-31T13:06:19;21.30;99.90
60234;DHT22;49514;43.538;-5.708;2022-10-31T13:08:52;21.10;99.90
60234;DHT22;49514;43.538;-5.708;2022-10-31T13:11:21;20.90;99.90
60234;DHT22;49514;43.538;-5.708;2022-10-31T13:16:19;20.50;99.90
60234;DHT22;49514;43.538;-5.708;2022-10-31T13:18:47;20.50;99.90
60234;DHT22;49514;43.538;-5.708;2022-10-31T13:21:17;20.60;99.90
60234;DHT22;49514;43.538;-5.708;2022-10-31T13:23:48;21.70;99.90
60234;DHT22;49514;43.538;-5.708;2022-10-31T13:26:41;24.10;99.90
60234;DHT22;49514;43.538;-5.708;2022-10-31T13:31:46;27.40;99.90
60234;DHT22;49514;43.538;-5.708;2022-10-31T13:34:35;29.40;99.90
60234;DHT22;49514;43.538;-5.708;2022-10-31T13:37:32;28.90;99.90
60234;DHT22;49514;43.538;-5.708;2022-10-31T13:45:15;26.40;99.90
60234;DHT22;49514;43.538;-5.708;2022-10-31T13:47:43;25.20;99.90
60234;DHT22;49514;43.538;-5.708;2022-10-31T13:50:23;24.50;99.90
60234;DHT22;49514;43.538;-5.708;2022-10-31T13:52:52;24.00;99.90
60234;DHT22;49514;43.538;-5.708;2022-10-31T13:58:25;22.80;99.90
60234;DHT22;49514;43.538;-5.708;2022-10-31T14:03:38;22.30;99.90
60234;DHT22;49514;43.538;-5.708;2022-10-31T14:06:08;22.20;99.90
60234;DHT22;49514;43.538;-5.708;2022-10-31T14:08:40;22.20;99.90
60234;DHT22;49514;43.538;-5.708;2022-10-31T14:11:08;22.20;99.90
60234;DHT22;49514;43.538;-5.708;2022-10-31T14:13:41;22.10;99.90
60234;DHT22;49514;43.538;-5.708;2022-10-31T14:16:38;22.00;99.90
60234;DHT22;49514;43.538;-5.708;2022-10-31T14:19:14;21.80;99.90
60234;DHT22;49514;43.538;-5.708;2022-10-31T14:21:45;21.70;99.90
60234;DHT22;49514;43.538;-5.708;2022-10-31T14:27:32;21.60;99.90
60234;DHT22;49514;43.538;-5.708;2022-10-31T14:29:52;21.60;99.90
60234;DHT22;49514;43.538;-5.708;2022-10-31T14:32:23;21.70;99.90
60234;DHT22;49514;43.538;-5.708;2022-10-31T14:34:53;21.70;99.90
60234;DHT22;49514;43.538;-5.708;2022-10-31T14:48:23;23.10;99.90
60234;DHT22;49514;43.538;-5.708;2022-10-31T14:50:51;25.00;99.90
60234;DHT22;49514;43.538;-5.708;2022-10-31T14:53:33;25.70;99.90
60234;DHT22;49514;43.538;-5.708;2022-10-31T14:56:00;25.80;99.90
60234;DHT22;49514;43.538;-5.708;2022-10-31T15:00:56;27.20;99.90
60234;DHT22;49514;43.538;-5.708;2022-10-31T15:03:26;27.10;96.90
60234;DHT22;49514;43.538;-5.708;2022-10-31T15:05:56;27.70;95.30
60234;DHT22;49514;43.538;-5.708;2022-10-31T15:08:31;28.10;93.80
60234;DHT22;49514;43.538;-5.708;2022-10-31T15:10:58;28.80;94.80
60234;DHT22;49514;43.538;-5.708;2022-10-31T15:13:28;29.80;92.40
60234;DHT22;49514;43.538;-5.708;2022-10-31T15:15:55;29.90;90.20
60234;DHT22;49514;43.538;-5.708;2022-10-31T15:18:23;29.60;86.50
60234;DHT22;49514;43.538;-5.708;2022-10-31T15:20:51;29.80;87.50
60234;DHT22;49514;43.538;-5.708;2022-10-31T15:23:41;29.50;85.60
60234;DHT22;49514;43.538;-5.708;2022-10-31T15:26:20;29.80;83.30
60234;DHT22;49514;43.538;-5.708;2022-10-31T15:29:01;29.80;82.30
60234;DHT22;49514;43.538;-5.708;2022-10-31T15:31:28;30.00;84.00
60234;DHT22;49514;43.538;-5.708;2022-10-31T15:33:55;30.10;80.60
60234;DHT22;49514;43.538;-5.708;2022-10-31T15:36:25;30.10;79.00
60234;DHT22;49514;43.538;-5.708;2022-10-31T15:38:52;30.70;80.50
60234;DHT22;49514;43.538;-5.708;2022-10-31T15:41:32;31.40;76.30
60234;DHT22;49514;43.538;-5.708;2022-10-31T15:44:02;31.30;77.50
60234;DHT22;49514;43.538;-5.708;2022-10-31T15:46:29;31.10;76.20
60234;DHT22;49514;43.538;-5.708;2022-10-31T15:48:56;31.00;74.60
60234;DHT22;49514;43.538;-5.708;2022-10-31T15:51:30;30.90;74.60
60234;DHT22;49514;43.538;-5.708;2022-10-31T15:53:57;30.90;74.40
60234;DHT22;49514;43.538;-5.708;2022-10-31T15:56:30;30.80;74.40
60234;DHT22;49514;43.538;-5.708;2022-10-31T15:58:58;30.50;74.90
60234;DHT22;49514;43.538;-5.708;2022-10-31T16:01:27;30.00;74.40
60234;DHT22;49514;43.538;-5.708;2022-10-31T16:06:39;28.60;77.80
60234;DHT22;49514;43.538;-5.708;2022-10-31T16:09:22;28.40;79.70
60234;DHT22;49514;43.538;-5.708;2022-10-31T16:11:49;27.90;80.90
60234;DHT22;49514;43.538;-5.708;2022-10-31T16:14:25;27.60;81.40
60234;DHT22;49514;43.538;-5.708;2022-10-31T16:16:55;27.30;84.00
60234;DHT22;49514;43.538;-5.708;2022-10-31T16:19:33;27.20;84.40
60234;DHT22;49514;43.538;-5.708;2022-10-31T16:22:11;26.90;85.10
60234;DHT22;49514;43.538;-5.708;2022-10-31T16:24:53;26.60;86.80
60234;DHT22;49514;43.538;-5.708;2022-10-31T16:27:25;26.10;88.00
60234;DHT22;49514;43.538;-5.708;2022-10-31T16:29:58;25.00;91.10
60234;DHT22;49514;43.538;-5.708;2022-10-31T16:40:11;21.60;99.90
60234;DHT22;49514;43.538;-5.708;2022-10-31T16:42:39;21.00;99.90
60234;DHT22;49514;43.538;-5.708;2022-10-31T16:45:07;20.70;99.90
60234;DHT22;49514;43.538;-5.708;2022-10-31T16:47:39;20.40;99.90
60234;DHT22;49514;43.538;-5.708;2022-10-31T16:50:12;20.20;99.90
60234;DHT22;49514;43.538;-5.708;2022-10-31T16:52:40;20.00;99.90
60234;DHT22;49514;43.538;-5.708;2022-10-31T16:55:11;19.80;99.90
60234;DHT22;49514;43.538;-5.708;2022-10-31T17:00:05;19.40;99.90
60234;DHT22;49514;43.538;-5.708;2022-10-31T17:04:59;18.90;99.90
60234;DHT22;49514;43.538;-5.708;2022-10-31T17:07:25;18.80;99.90
60234;DHT22;49514;43.538;-5.708;2022-10-31T17:09:52;18.60;99.90
60234;DHT22;49514;43.538;-5.708;2022-10-31T17:12:18;18.50;99.90
60234;DHT22;49514;43.538;-5.708;2022-10-31T17:19:41;18.30;99.90
60234;DHT22;49514;43.538;-5.708;2022-10-31T17:22:10;18.20;99.90
60234;DHT22;49514;43.538;-5.708;2022-10-31T17:24:36;18.20;99.90
60234;DHT22;49514;43.538;-5.708;2022-10-31T17:27:03;18.10;99.90
60234;DHT22;49514;43.538;-5.708;2022-10-31T17:29:29;18.00;99.90
60234;DHT22;49514;43.538;-5.708;2022-10-31T17:31:56;17.90;99.90
60234;DHT22;49514;43.538;-5.708;2022-10-31T17:34:22;17.90;99.90
60234;DHT22;49514;43.538;-5.708;2022-10-31T17:36:50;17.80;99.90
60234;DHT22;49514;43.538;-5.708;2022-10-31T17:39:18;17.70;99.90
60234;DHT22;49514;43.538;-5.708;2022-10-31T17:41:48;17.70;99.90
60234;DHT22;49514;43.538;-5.708;2022-10-31T17:44:15;17.60;99.90
60234;DHT22;49514;43.538;-5.708;2022-10-31T17:46:42;17.50;99.90
60234;DHT22;49514;43.538;-5.708;2022-10-31T17:49:10;17.50;99.90
60234;DHT22;49514;43.538;-5.708;2022-10-31T17:51:37;17.40;99.90
60234;DHT22;49514;43.538;-5.708;2022-10-31T17:54:04;17.40;99.90
60234;DHT22;49514;43.538;-5.708;2022-10-31T17:56:32;17.30;99.90
60234;DHT22;49514;43.538;-5.708;2022-10-31T17:58:58;17.30;99.90
60234;DHT22;49514;43.538;-5.708;2022-10-31T18:01:25;17.20;99.90
60234;DHT22;49514;43.538;-5.708;2022-10-31T18:03:52;17.20;99.90
60234;DHT22;49514;43.538;-5.708;2022-10-31T18:06:19;17.20;99.90
60234;DHT22;49514;43.538;-5.708;2022-10-31T18:08:45;17.20;99.90
60234;DHT22;49514;43.538;-5.708;2022-10-31T18:11:20;17.20;99.90
60234;DHT22;49514;43.538;-5.708;2022-10-31T18:13:47;17.10;99.90
60234;DHT22;49514;43.538;-5.708;2022-10-31T18:16:19;17.10;99.90
60234;DHT22;49514;43.538;-5.708;2022-10-31T18:18:55;17.10;99.90
60234;DHT22;49514;43.538;-5.708;2022-10-31T18:21:24;17.00;99.90
60234;DHT22;49514;43.538;-5.708;2022-10-31T18:23:57;17.00;99.90
60234;DHT22;49514;43.538;-5.708;2022-10-31T18:26:25;17.00;99.90
60234;DHT22;49514;43.538;-5.708;2022-10-31T18:28:53;17.00;99.90
60234;DHT22;49514;43.538;-5.708;2022-10-31T18:31:21;17.00;99.90
60234;DHT22;49514;43.538;-5.708;2022-10-31T18:33:47;17.00;99.90
60234;DHT22;49514;43.538;-5.708;2022-10-31T18:36:17;17.00;99.90
60234;DHT22;49514;43.538;-5.708;2022-10-31T18:38:44;17.10;99.90
60234;DHT22;49514;43.538;-5.708;2022-10-31T18:41:11;17.10;99.90
60234;DHT22;49514;43.538;-5.708;2022-10-31T18:43:38;17.10;99.90
60234;DHT22;49514;43.538;-5.708;2022-10-31T18:46:12;17.10;99.90
60234;DHT22;49514;43.538;-5.708;2022-10-31T18:48:40;17.10;99.90
60234;DHT22;49514;43.538;-5.708;2022-10-31T18:51:10;17.10;99.90
60234;DHT22;49514;43.538;-5.708;2022-10-31T18:53:37;17.10;99.90
60234;DHT22;49514;43.538;-5.708;2022-10-31T18:56:08;17.10;99.90
60234;DHT22;49514;43.538;-5.708;2022-10-31T18:58:36;17.00;99.90
60234;DHT22;49514;43.538;-5.708;2022-10-31T19:01:08;17.00;99.90
60234;DHT22;49514;43.538;-5.708;2022-10-31T19:03:36;17.00;99.90
60234;DHT22;49514;43.538;-5.708;2022-10-31T19:06:04;17.00;99.90
60234;DHT22;49514;43.538;-5.708;2022-10-31T19:08:32;17.00;99.90